sensor_id;sensor_type;location;lat;lon;timestamp;pressure;altitude;pressure_sealevel;temperature;humidity
75942;BME280;64622;46.220;19.878;2023-07-31T00:00:55;100142.13;;;17.79;100.00
75942;BME280;64622;46.220;19.878;2023-07-31T00:03:22;100153.16;;;17.84;100.00
75942;BME280;64622;46.220;19.878;2023-07-31T00:05:48;100145.87;;;17.84;100.00
75942;BME280;64622;46.220;19.878;2023-07-31T00:08:15;100142.13;;;17.85;100.00
75942;BME280;64622;46.220;19.878;2023-07-31T00:10:41;100144.81;;;17.79;100.00
75942;BME280;64622;46.220;19.878;2023-07-31T00:13:08;100142.56;;;17.76;100.00
75942;BME280;64622;46.220;19.878;2023-07-31T00:15:34;100137.12;;;17.76;100.00
75942;BME280;64622;46.220;19.878;2023-07-31T00:18:01;100136.09;;;17.77;100.00
75942;BME280;64622;46.220;19.878;2023-07-31T00:20:28;100135.44;;;17.81;100.00
75942;BME280;64622;46.220;19.878;2023-07-31T00:22:54;100130.03;;;17.81;100.00
75942;BME280;64622;46.220;19.878;2023-07-31T00:25:21;100145.25;;;17.82;100.00
75942;BME280;64622;46.220;19.878;2023-07-31T00:27:48;100143.16;;;17.78;100.00
75942;BME280;64622;46.220;19.878;2023-07-31T00:30:14;100149.00;;;17.81;100.00
75942;BME280;64622;46.220;19.878;2023-07-31T00:32:41;100152.75;;;17.74;100.00
75942;BME280;64622;46.220;19.878;2023-07-31T00:35:08;100142.16;;;17.72;100.00
75942;BME280;64622;46.220;19.878;2023-07-31T00:37:34;100151.09;;;17.79;100.00
75942;BME280;64622;46.220;19.878;2023-07-31T00:40:02;100146.94;;;17.83;100.00
75942;BME280;64622;46.220;19.878;2023-07-31T00:42:30;100133.38;;;17.77;100.00
75942;BME280;64622;46.220;19.878;2023-07-31T00:44:56;100149.22;;;17.80;100.00
75942;BME280;64622;46.220;19.878;2023-07-31T00:47:23;100132.34;;;17.71;100.00
75942;BME280;64622;46.220;19.878;2023-07-31T00:49:50;100133.59;;;17.69;100.00
75942;BME280;64622;46.220;19.878;2023-07-31T00:52:16;100133.19;;;17.72;100.00
75942;BME280;64622;46.220;19.878;2023-07-31T00:54:45;100132.75;;;17.68;100.00
75942;BME280;64622;46.220;19.878;2023-07-31T00:57:11;100115.25;;;17.58;100.00
75942;BME280;64622;46.220;19.878;2023-07-31T00:59:38;100117.97;;;17.64;100.00
75942;BME280;64622;46.220;19.878;2023-07-31T01:02:05;100104.84;;;17.61;100.00
75942;BME280;64622;46.220;19.878;2023-07-31T01:04:32;100109.44;;;17.61;100.00
75942;BME280;64622;46.220;19.878;2023-07-31T01:07:14;100114.00;;;17.60;100.00
75942;BME280;64622;46.220;19.878;2023-07-31T01:10:11;100111.50;;;17.59;100.00
75942;BME280;64622;46.220;19.878;2023-07-31T01:12:41;100118.19;;;17.63;100.00
75942;BME280;64622;46.220;19.878;2023-07-31T01:15:12;100115.25;;;17.58;100.00
75942;BME280;64622;46.220;19.878;2023-07-31T01:17:41;100129.22;;;17.61;100.00
75942;BME280;64622;46.220;19.878;2023-07-31T01:28:13;100116.72;;;17.54;100.00
75942;BME280;64622;46.220;19.878;2023-07-31T01:30:47;100123.38;;;17.51;100.00
75942;BME280;64622;46.220;19.878;2023-07-31T01:33:16;100115.25;;;17.51;100.00
75942;BME280;64622;46.220;19.878;2023-07-31T01:35:44;100108.16;;;17.44;100.00
75942;BME280;64622;46.220;19.878;2023-07-31T01:38:12;100111.69;;;17.38;100.00
75942;BME280;64622;46.220;19.878;2023-07-31T01:40:41;100117.09;;;17.38;100.00
75942;BME280;64622;46.220;19.878;2023-07-31T01:43:09;100106.69;;;17.35;100.00
75942;BME280;64622;46.220;19.878;2023-07-31T01:45:35;100107.56;;;17.42;100.00
75942;BME280;64622;46.220;19.878;2023-07-31T01:48:02;100106.06;;;17.33;100.00
75942;BME280;64622;46.220;19.878;2023-07-31T01:50:29;100109.59;;;17.33;100.00
75942;BME280;64622;46.220;19.878;2023-07-31T01:52:56;100110.44;;;17.27;100.00
75942;BME280;64622;46.220;19.878;2023-07-31T01:55:24;100109.19;;;17.30;100.00
75942;BME280;64622;46.220;19.878;2023-07-31T01:57:51;100114.16;;;17.26;100.00
75942;BME280;64622;46.220;19.878;2023-07-31T02:00:19;100114.78;;;17.22;100.00
75942;BME280;64622;46.220;19.878;2023-07-31T02:02:45;100122.69;;;17.23;100.00
75942;BME280;64622;46.220;19.878;2023-07-31T02:05:12;100130.62;;;17.25;100.00
75942;BME280;64622;46.220;19.878;2023-07-31T02:07:38;100123.53;;;17.17;100.00
75942;BME280;64622;46.220;19.878;2023-07-31T02:10:06;100132.66;;;17.16;100.00
75942;BME280;64622;46.220;19.878;2023-07-31T02:12:35;100131.84;;;17.16;100.00
75942;BME280;64622;46.220;19.878;2023-07-31T02:15:02;100142.03;;;17.07;100.00
75942;BME280;64622;46.220;19.878;2023-07-31T02:17:28;100140.53;;;17.11;100.00
75942;BME280;64622;46.220;19.878;2023-07-31T02:19:56;100142.44;;;17.11;100.00
75942;BME280;64622;46.220;19.878;2023-07-31T02:22:22;100144.28;;;17.10;100.00
75942;BME280;64622;46.220;19.878;2023-07-31T02:24:49;100139.75;;;17.17;100.00
75942;BME280;64622;46.220;19.878;2023-07-31T02:27:16;100133.69;;;17.15;100.00
75942;BME280;64622;46.220;19.878;2023-07-31T02:29:43;100131.41;;;17.19;100.00
75942;BME280;64622;46.220;19.878;2023-07-31T02:32:09;100138.50;;;17.20;100.00
75942;BME280;64622;46.220;19.878;2023-07-31T02:34:36;100134.56;;;17.22;100.00
75942;BME280;64622;46.220;19.878;2023-07-31T02:37:03;100145.19;;;17.30;100.00
75942;BME280;64622;46.220;19.878;2023-07-31T02:39:29;100141.84;;;17.28;100.00
75942;BME280;64622;46.220;19.878;2023-07-31T02:41:56;100135.78;;;17.26;100.00
75942;BME280;64622;46.220;19.878;2023-07-31T02:44:23;100142.66;;;17.29;100.00
75942;BME280;64622;46.220;19.878;2023-07-31T02:46:50;100140.59;;;17.31;100.00
75942;BME280;64622;46.220;19.878;2023-07-31T02:49:17;100149.34;;;17.33;100.00
75942;BME280;64622;46.220;19.878;2023-07-31T02:51:43;100137.91;;;17.31;100.00
75942;BME280;64622;46.220;19.878;2023-07-31T02:54:10;100125.63;;;17.35;100.00
75942;BME280;64622;46.220;19.878;2023-07-31T02:56:37;100128.13;;;17.36;100.00
75942;BME280;64622;46.220;19.878;2023-07-31T02:59:03;100123.94;;;17.34;100.00
75942;BME280;64622;46.220;19.878;2023-07-31T03:01:30;100138.16;;;17.42;100.00
75942;BME280;64622;46.220;19.878;2023-07-31T03:03:58;100123.53;;;17.30;100.00
75942;BME280;64622;46.220;19.878;2023-07-31T03:06:25;100137.47;;;17.34;100.00
75942;BME280;64622;46.220;19.878;2023-07-31T03:08:53;100126.03;;;17.25;100.00
75942;BME280;64622;46.220;19.878;2023-07-31T03:11:20;100129.75;;;17.18;100.00
75942;BME280;64622;46.220;19.878;2023-07-31T03:13:47;100138.94;;;17.23;100.00
75942;BME280;64622;46.220;19.878;2023-07-31T03:16:13;100142.69;;;17.22;100.00
75942;BME280;64622;46.220;19.878;2023-07-31T03:18:40;100137.03;;;17.24;100.00
75942;BME280;64622;46.220;19.878;2023-07-31T03:21:07;100152.03;;;17.26;100.00
75942;BME280;64622;46.220;19.878;2023-07-31T03:23:34;100142.44;;;17.24;100.00
75942;BME280;64622;46.220;19.878;2023-07-31T03:26:02;100143.50;;;17.23;100.00
75942;BME280;64622;46.220;19.878;2023-07-31T03:28:30;100138.06;;;17.16;100.00
75942;BME280;64622;46.220;19.878;2023-07-31T03:30:56;100157.88;;;17.23;100.00
75942;BME280;64622;46.220;19.878;2023-07-31T03:33:23;100159.69;;;17.16;100.00
75942;BME280;64622;46.220;19.878;2023-07-31T03:35:51;100162.63;;;17.15;100.00
75942;BME280;64622;46.220;19.878;2023-07-31T03:38:17;100165.13;;;17.16;100.00
75942;BME280;64622;46.220;19.878;2023-07-31T03:40:44;100171.97;;;17.19;100.00
75942;BME280;64622;46.220;19.878;2023-07-31T03:43:11;100183.25;;;17.29;100.00
75942;BME280;64622;46.220;19.878;2023-07-31T03:45:39;100174.31;;;17.28;100.00
75942;BME280;64622;46.220;19.878;2023-07-31T03:48:06;100182.87;;;17.38;100.00
75942;BME280;64622;46.220;19.878;2023-07-31T03:50:34;100180.41;;;17.43;100.00
75942;BME280;64622;46.220;19.878;2023-07-31T03:53:00;100176.06;;;17.42;100.00
75942;BME280;64622;46.220;19.878;2023-07-31T03:55:27;100180.19;;;17.51;100.00
75942;BME280;64622;46.220;19.878;2023-07-31T03:57:54;100174.38;;;17.54;100.00
75942;BME280;64622;46.220;19.878;2023-07-31T04:00:20;100172.50;;;17.61;100.00
75942;BME280;64622;46.220;19.878;2023-07-31T04:02:48;100171.47;;;17.69;100.00
75942;BME280;64622;46.220;19.878;2023-07-31T04:05:15;100177.34;;;17.72;100.00
75942;BME280;64622;46.220;19.878;2023-07-31T04:07:41;100167.97;;;17.68;100.00
75942;BME280;64622;46.220;19.878;2023-07-31T04:10:09;100185.22;;;17.80;100.00
75942;BME280;64622;46.220;19.878;2023-07-31T04:12:35;100181.06;;;17.84;100.00
75942;BME280;64622;46.220;19.878;2023-07-31T04:15:02;100182.94;;;17.90;100.00
75942;BME280;64622;46.220;19.878;2023-07-31T04:17:29;100184.59;;;17.98;100.00
75942;BME280;64622;46.220;19.878;2023-07-31T04:19:56;100175.22;;;18.00;100.00
75942;BME280;64622;46.220;19.878;2023-07-31T04:22:22;100179.81;;;18.06;100.00
75942;BME280;64622;46.220;19.878;2023-07-31T04:24:49;100171.06;;;18.11;100.00
75942;BME280;64622;46.220;19.878;2023-07-31T04:27:16;100191.66;;;18.31;100.00
75942;BME280;64622;46.220;19.878;2023-07-31T04:29:42;100201.66;;;18.57;100.00
75942;BME280;64622;46.220;19.878;2023-07-31T04:32:10;100205.75;;;18.79;99.87
75942;BME280;64622;46.220;19.878;2023-07-31T04:34:37;100213.66;;;18.93;99.13
75942;BME280;64622;46.220;19.878;2023-07-31T04:37:04;100211.53;;;19.02;98.90
75942;BME280;64622;46.220;19.878;2023-07-31T04:39:30;100210.00;;;19.12;98.33
75942;BME280;64622;46.220;19.878;2023-07-31T04:41:57;100211.03;;;19.24;98.19
75942;BME280;64622;46.220;19.878;2023-07-31T04:44:23;100211.22;;;19.29;97.70
75942;BME280;64622;46.220;19.878;2023-07-31T04:46:50;100217.19;;;19.44;97.76
75942;BME280;64622;46.220;19.878;2023-07-31T04:49:17;100211.09;;;19.49;97.21
75942;BME280;64622;46.220;19.878;2023-07-31T04:51:43;100211.72;;;19.51;96.88
75942;BME280;64622;46.220;19.878;2023-07-31T04:54:10;100215.81;;;19.60;96.92
75942;BME280;64622;46.220;19.878;2023-07-31T04:56:38;100211.03;;;19.62;96.35
75942;BME280;64622;46.220;19.878;2023-07-31T04:59:04;100206.66;;;19.85;96.32
75942;BME280;64622;46.220;19.878;2023-07-31T05:01:31;100220.22;;;19.92;95.36
75942;BME280;64622;46.220;19.878;2023-07-31T05:03:58;100201.69;;;20.07;95.11
75942;BME280;64622;46.220;19.878;2023-07-31T05:06:24;100208.88;;;20.26;94.70
75942;BME280;64622;46.220;19.878;2023-07-31T05:08:51;100206.56;;;20.47;94.27
75942;BME280;64622;46.220;19.878;2023-07-31T05:11:18;100211.19;;;20.83;94.47
75942;BME280;64622;46.220;19.878;2023-07-31T05:13:44;100218.91;;;20.68;93.23
75942;BME280;64622;46.220;19.878;2023-07-31T05:16:11;100201.44;;;20.75;92.55
75942;BME280;64622;46.220;19.878;2023-07-31T05:18:37;100201.75;;;21.03;92.25
75942;BME280;64622;46.220;19.878;2023-07-31T05:21:04;100205.19;;;21.28;91.66
75942;BME280;64622;46.220;19.878;2023-07-31T05:23:30;100206.56;;;20.83;91.75
75942;BME280;64622;46.220;19.878;2023-07-31T05:26:05;100212.25;;;20.46;92.37
75942;BME280;64622;46.220;19.878;2023-07-31T05:28:34;100215.44;;;20.18;92.23
75942;BME280;64622;46.220;19.878;2023-07-31T05:31:05;100212.47;;;20.20;92.44
75942;BME280;64622;46.220;19.878;2023-07-31T05:33:31;100209.09;;;20.24;91.97
75942;BME280;64622;46.220;19.878;2023-07-31T05:35:58;100213.09;;;20.64;91.42
75942;BME280;64622;46.220;19.878;2023-07-31T05:38:24;100221.91;;;20.60;91.23
75942;BME280;64622;46.220;19.878;2023-07-31T05:40:51;100210.47;;;20.33;91.72
75942;BME280;64622;46.220;19.878;2023-07-31T05:43:18;100216.69;;;20.40;92.04
75942;BME280;64622;46.220;19.878;2023-07-31T05:45:44;100220.09;;;20.54;91.56
75942;BME280;64622;46.220;19.878;2023-07-31T05:48:10;100221.41;;;20.69;90.90
75942;BME280;64622;46.220;19.878;2023-07-31T05:50:37;100228.81;;;20.98;91.05
75942;BME280;64622;46.220;19.878;2023-07-31T05:53:06;100220.00;;;21.03;90.22
75942;BME280;64622;46.220;19.878;2023-07-31T05:55:34;100227.41;;;21.43;89.57
75942;BME280;64622;46.220;19.878;2023-07-31T05:58:00;100222.19;;;22.12;88.92
75942;BME280;64622;46.220;19.878;2023-07-31T06:00:27;100239.53;;;22.18;87.99
75942;BME280;64622;46.220;19.878;2023-07-31T06:02:54;100238.56;;;22.12;87.78
75942;BME280;64622;46.220;19.878;2023-07-31T06:05:20;100232.56;;;22.45;87.26
75942;BME280;64622;46.220;19.878;2023-07-31T06:07:47;100238.94;;;23.08;86.85
75942;BME280;64622;46.220;19.878;2023-07-31T06:10:14;100234.53;;;23.18;85.81
75942;BME280;64622;46.220;19.878;2023-07-31T06:12:40;100235.94;;;23.21;85.91
75942;BME280;64622;46.220;19.878;2023-07-31T06:15:06;100242.31;;;22.75;86.29
75942;BME280;64622;46.220;19.878;2023-07-31T06:17:33;100238.94;;;22.27;86.43
75942;BME280;64622;46.220;19.878;2023-07-31T06:20:00;100231.47;;;22.23;86.73
75942;BME280;64622;46.220;19.878;2023-07-31T06:22:26;100228.25;;;22.14;86.66
75942;BME280;64622;46.220;19.878;2023-07-31T06:24:53;100243.78;;;22.14;86.52
75942;BME280;64622;46.220;19.878;2023-07-31T06:27:20;100238.78;;;22.11;86.21
75942;BME280;64622;46.220;19.878;2023-07-31T06:29:46;100227.50;;;21.96;86.23
75942;BME280;64622;46.220;19.878;2023-07-31T06:32:13;100237.72;;;22.00;86.37
75942;BME280;64622;46.220;19.878;2023-07-31T06:34:39;100241.63;;;22.16;86.25
75942;BME280;64622;46.220;19.878;2023-07-31T06:37:06;100238.78;;;22.11;86.20
75942;BME280;64622;46.220;19.878;2023-07-31T06:39:33;100251.44;;;22.58;85.69
75942;BME280;64622;46.220;19.878;2023-07-31T06:41:59;100233.72;;;23.18;85.06
75942;BME280;64622;46.220;19.878;2023-07-31T06:44:26;100240.34;;;23.78;84.27
75942;BME280;64622;46.220;19.878;2023-07-31T06:46:53;100242.81;;;24.07;83.00
75942;BME280;64622;46.220;19.878;2023-07-31T06:49:19;100248.69;;;23.43;83.56
75942;BME280;64622;46.220;19.878;2023-07-31T06:51:46;100252.66;;;23.64;82.27
75942;BME280;64622;46.220;19.878;2023-07-31T06:54:13;100255.97;;;23.66;82.00
75942;BME280;64622;46.220;19.878;2023-07-31T06:56:39;100258.63;;;23.21;82.34
75942;BME280;64622;46.220;19.878;2023-07-31T06:59:06;100264.19;;;23.03;82.18
75942;BME280;64622;46.220;19.878;2023-07-31T07:01:32;100257.69;;;23.04;81.97
75942;BME280;64622;46.220;19.878;2023-07-31T07:03:58;100257.03;;;23.37;81.63
75942;BME280;64622;46.220;19.878;2023-07-31T07:06:25;100261.13;;;23.90;80.55
75942;BME280;64622;46.220;19.878;2023-07-31T07:08:52;100260.72;;;24.15;79.34
75942;BME280;64622;46.220;19.878;2023-07-31T07:11:18;100262.00;;;24.24;77.65
75942;BME280;64622;46.220;19.878;2023-07-31T07:13:44;100262.31;;;23.83;79.33
75942;BME280;64622;46.220;19.878;2023-07-31T07:16:11;100258.50;;;23.84;79.48
75942;BME280;64622;46.220;19.878;2023-07-31T07:18:38;100257.50;;;24.51;77.65
75942;BME280;64622;46.220;19.878;2023-07-31T07:21:04;100261.03;;;24.84;74.27
75942;BME280;64622;46.220;19.878;2023-07-31T07:23:31;100241.53;;;25.62;72.05
75942;BME280;64622;46.220;19.878;2023-07-31T07:25:57;100248.88;;;25.56;71.71
75942;BME280;64622;46.220;19.878;2023-07-31T07:28:24;100250.50;;;26.05;69.98
75942;BME280;64622;46.220;19.878;2023-07-31T07:30:52;100256.12;;;26.20;69.13
75942;BME280;64622;46.220;19.878;2023-07-31T07:33:19;100265.66;;;26.13;67.55
75942;BME280;64622;46.220;19.878;2023-07-31T07:35:46;100254.22;;;26.21;67.02
75942;BME280;64622;46.220;19.878;2023-07-31T07:38:14;100251.31;;;26.32;64.88
75942;BME280;64622;46.220;19.878;2023-07-31T07:40:41;100270.50;;;26.59;64.17
75942;BME280;64622;46.220;19.878;2023-07-31T07:43:08;100265.97;;;25.90;64.83
75942;BME280;64622;46.220;19.878;2023-07-31T07:45:34;100260.28;;;25.48;66.08
75942;BME280;64622;46.220;19.878;2023-07-31T07:48:01;100258.22;;;24.96;69.31
75942;BME280;64622;46.220;19.878;2023-07-31T07:50:27;100259.66;;;24.49;70.45
75942;BME280;64622;46.220;19.878;2023-07-31T07:52:54;100267.97;;;24.37;69.73
75942;BME280;64622;46.220;19.878;2023-07-31T07:55:20;100265.44;;;24.19;69.72
75942;BME280;64622;46.220;19.878;2023-07-31T07:57:46;100266.34;;;24.08;69.56
75942;BME280;64622;46.220;19.878;2023-07-31T08:00:13;100267.94;;;24.21;67.91
75942;BME280;64622;46.220;19.878;2023-07-31T08:02:40;100265.81;;;24.23;66.72
75942;BME280;64622;46.220;19.878;2023-07-31T08:05:07;100270.91;;;24.19;67.23
75942;BME280;64622;46.220;19.878;2023-07-31T08:07:34;100271.97;;;24.02;68.94
75942;BME280;64622;46.220;19.878;2023-07-31T08:10:00;100271.59;;;24.10;70.27
75942;BME280;64622;46.220;19.878;2023-07-31T08:12:27;100280.50;;;24.83;66.99
75942;BME280;64622;46.220;19.878;2023-07-31T08:14:54;100272.56;;;25.24;64.90
75942;BME280;64622;46.220;19.878;2023-07-31T08:17:20;100282.28;;;25.32;65.18
75942;BME280;64622;46.220;19.878;2023-07-31T08:19:47;100275.03;;;25.42;65.36
75942;BME280;64622;46.220;19.878;2023-07-31T08:22:13;100276.88;;;26.06;63.13
75942;BME280;64622;46.220;19.878;2023-07-31T08:24:40;100275.81;;;25.64;63.02
75942;BME280;64622;46.220;19.878;2023-07-31T08:27:07;100269.44;;;26.07;63.16
75942;BME280;64622;46.220;19.878;2023-07-31T08:29:33;100266.53;;;26.50;60.48
75942;BME280;64622;46.220;19.878;2023-07-31T08:32:00;100263.94;;;26.65;59.81
75942;BME280;64622;46.220;19.878;2023-07-31T08:34:26;100266.56;;;26.86;57.38
75942;BME280;64622;46.220;19.878;2023-07-31T08:36:53;100268.06;;;27.09;55.94
75942;BME280;64622;46.220;19.878;2023-07-31T08:39:19;100271.66;;;26.73;53.12
75942;BME280;64622;46.220;19.878;2023-07-31T08:41:47;100258.69;;;27.05;51.74
75942;BME280;64622;46.220;19.878;2023-07-31T08:44:15;100273.19;;;26.95;51.33
75942;BME280;64622;46.220;19.878;2023-07-31T08:46:42;100266.38;;;27.03;50.92
75942;BME280;64622;46.220;19.878;2023-07-31T08:49:09;100269.00;;;27.29;49.12
75942;BME280;64622;46.220;19.878;2023-07-31T08:51:36;100263.56;;;26.93;47.84
75942;BME280;64622;46.220;19.878;2023-07-31T08:54:03;100264.63;;;27.33;46.93
75942;BME280;64622;46.220;19.878;2023-07-31T08:56:32;100270.19;;;27.43;44.99
75942;BME280;64622;46.220;19.878;2023-07-31T08:59:02;100264.34;;;27.30;45.75
75942;BME280;64622;46.220;19.878;2023-07-31T09:01:30;100265.78;;;27.42;45.76
75942;BME280;64622;46.220;19.878;2023-07-31T09:03:59;100269.28;;;28.34;43.83
75942;BME280;64622;46.220;19.878;2023-07-31T09:06:28;100284.47;;;28.52;43.09
75942;BME280;64622;46.220;19.878;2023-07-31T09:08:55;100279.44;;;27.84;39.87
75942;BME280;64622;46.220;19.878;2023-07-31T09:11:23;100275.22;;;27.66;39.46
75942;BME280;64622;46.220;19.878;2023-07-31T09:13:51;100269.03;;;28.76;40.49
75942;BME280;64622;46.220;19.878;2023-07-31T09:16:18;100276.47;;;28.70;38.51
75942;BME280;64622;46.220;19.878;2023-07-31T09:18:55;100264.06;;;28.18;38.15
75942;BME280;64622;46.220;19.878;2023-07-31T09:21:23;100272.03;;;28.14;38.04
75942;BME280;64622;46.220;19.878;2023-07-31T09:23:50;100278.66;;;28.13;37.85
75942;BME280;64622;46.220;19.878;2023-07-31T09:26:34;100278.94;;;28.27;38.19
75942;BME280;64622;46.220;19.878;2023-07-31T09:29:04;100259.09;;;28.10;37.30
75942;BME280;64622;46.220;19.878;2023-07-31T09:31:32;100273.19;;;28.58;37.72
75942;BME280;64622;46.220;19.878;2023-07-31T09:33:59;100262.44;;;28.52;38.87
75942;BME280;64622;46.220;19.878;2023-07-31T09:36:29;100264.63;;;28.65;39.19
75942;BME280;64622;46.220;19.878;2023-07-31T09:39:01;100249.50;;;28.42;38.23
75942;BME280;64622;46.220;19.878;2023-07-31T09:41:30;100256.06;;;28.21;37.71
75942;BME280;64622;46.220;19.878;2023-07-31T09:43:57;100253.63;;;28.50;37.26
75942;BME280;64622;46.220;19.878;2023-07-31T09:46:27;100257.19;;;28.65;38.70
75942;BME280;64622;46.220;19.878;2023-07-31T09:51:38;100249.72;;;29.01;36.26
75942;BME280;64622;46.220;19.878;2023-07-31T09:54:16;100258.78;;;29.01;35.69
75942;BME280;64622;46.220;19.878;2023-07-31T09:56:47;100241.72;;;29.04;35.62
75942;BME280;64622;46.220;19.878;2023-07-31T09:59:16;100245.88;;;28.82;35.85
75942;BME280;64622;46.220;19.878;2023-07-31T10:01:45;100237.91;;;28.55;35.90
75942;BME280;64622;46.220;19.878;2023-07-31T10:04:13;100252.75;;;28.79;35.50
75942;BME280;64622;46.220;19.878;2023-07-31T10:06:42;100243.66;;;28.74;35.80
75942;BME280;64622;46.220;19.878;2023-07-31T10:09:11;100255.47;;;28.94;34.42
75942;BME280;64622;46.220;19.878;2023-07-31T10:11:53;100245.34;;;28.80;34.97
75942;BME280;64622;46.220;19.878;2023-07-31T10:14:23;100232.00;;;29.22;35.98
75942;BME280;64622;46.220;19.878;2023-07-31T10:16:50;100241.72;;;28.89;36.81
75942;BME280;64622;46.220;19.878;2023-07-31T10:19:18;100237.97;;;29.39;36.76
75942;BME280;64622;46.220;19.878;2023-07-31T10:21:45;100236.75;;;28.81;36.88
75942;BME280;64622;46.220;19.878;2023-07-31T10:24:15;100228.78;;;29.00;36.68
75942;BME280;64622;46.220;19.878;2023-07-31T10:26:44;100239.44;;;29.21;35.98
75942;BME280;64622;46.220;19.878;2023-07-31T10:29:12;100229.12;;;29.47;35.04
75942;BME280;64622;46.220;19.878;2023-07-31T10:31:40;100234.56;;;29.67;34.77
75942;BME280;64622;46.220;19.878;2023-07-31T10:34:07;100230.91;;;29.76;35.12
75942;BME280;64622;46.220;19.878;2023-07-31T10:36:34;100220.09;;;29.31;34.48
75942;BME280;64622;46.220;19.878;2023-07-31T10:39:03;100231.06;;;29.41;34.46
75942;BME280;64622;46.220;19.878;2023-07-31T10:41:30;100223.91;;;29.40;34.70
75942;BME280;64622;46.220;19.878;2023-07-31T10:44:01;100231.53;;;29.05;33.88
75942;BME280;64622;46.220;19.878;2023-07-31T10:46:28;100235.03;;;29.15;32.88
75942;BME280;64622;46.220;19.878;2023-07-31T10:49:00;100234.03;;;29.65;32.90
75942;BME280;64622;46.220;19.878;2023-07-31T10:51:34;100220.00;;;30.00;32.42
75942;BME280;64622;46.220;19.878;2023-07-31T10:54:12;100208.22;;;30.23;31.59
75942;BME280;64622;46.220;19.878;2023-07-31T10:56:39;100213.16;;;30.59;32.63
75942;BME280;64622;46.220;19.878;2023-07-31T10:59:06;100213.84;;;30.13;31.77
75942;BME280;64622;46.220;19.878;2023-07-31T11:01:55;100207.91;;;29.42;33.23
75942;BME280;64622;46.220;19.878;2023-07-31T11:04:26;100212.66;;;29.80;33.85
75942;BME280;64622;46.220;19.878;2023-07-31T11:07:00;100215.19;;;29.77;33.54
75942;BME280;64622;46.220;19.878;2023-07-31T11:09:29;100216.22;;;29.86;31.83
75942;BME280;64622;46.220;19.878;2023-07-31T11:11:56;100210.81;;;30.43;32.52
75942;BME280;64622;46.220;19.878;2023-07-31T11:14:23;100210.37;;;30.59;31.35
75942;BME280;64622;46.220;19.878;2023-07-31T11:16:50;100209.53;;;30.59;32.39
75942;BME280;64622;46.220;19.878;2023-07-31T11:19:26;100215.44;;;30.19;31.74
75942;BME280;64622;46.220;19.878;2023-07-31T11:21:53;100201.16;;;30.12;32.62
75942;BME280;64622;46.220;19.878;2023-07-31T11:24:20;100212.12;;;31.31;31.34
75942;BME280;64622;46.220;19.878;2023-07-31T11:26:51;100205.09;;;30.63;31.49
75942;BME280;64622;46.220;19.878;2023-07-31T11:29:19;100205.09;;;30.63;32.35
75942;BME280;64622;46.220;19.878;2023-07-31T11:31:47;100186.66;;;31.05;31.11
75942;BME280;64622;46.220;19.878;2023-07-31T11:34:15;100200.44;;;31.10;31.86
75942;BME280;64622;46.220;19.878;2023-07-31T11:36:53;100206.87;;;30.77;31.27
75942;BME280;64622;46.220;19.878;2023-07-31T11:39:20;100204.66;;;29.79;30.75
75942;BME280;64622;46.220;19.878;2023-07-31T11:41:46;100201.59;;;28.43;34.97
75942;BME280;64622;46.220;19.878;2023-07-31T11:44:13;100204.94;;;29.82;31.98
75942;BME280;64622;46.220;19.878;2023-07-31T11:46:39;100197.81;;;29.71;31.63
75942;BME280;64622;46.220;19.878;2023-07-31T11:49:06;100205.22;;;30.19;32.32
75942;BME280;64622;46.220;19.878;2023-07-31T11:51:33;100210.50;;;31.01;31.24
75942;BME280;64622;46.220;19.878;2023-07-31T11:54:01;100204.78;;;30.41;30.96
75942;BME280;64622;46.220;19.878;2023-07-31T11:56:28;100209.13;;;30.75;30.99
75942;BME280;64622;46.220;19.878;2023-07-31T11:58:58;100192.38;;;30.67;30.11
75942;BME280;64622;46.220;19.878;2023-07-31T12:01:27;100208.16;;;30.33;31.13
75942;BME280;64622;46.220;19.878;2023-07-31T12:03:55;100196.28;;;30.89;30.02
75942;BME280;64622;46.220;19.878;2023-07-31T12:06:32;100196.22;;;30.94;31.56
75942;BME280;64622;46.220;19.878;2023-07-31T12:09:04;100197.91;;;30.67;30.75
75942;BME280;64622;46.220;19.878;2023-07-31T12:11:31;100177.81;;;30.28;30.18
75942;BME280;64622;46.220;19.878;2023-07-31T12:13:58;100184.94;;;30.34;30.83
75942;BME280;64622;46.220;19.878;2023-07-31T12:16:26;100169.50;;;31.69;29.64
75942;BME280;64622;46.220;19.878;2023-07-31T12:18:55;100186.53;;;31.15;28.94
75942;BME280;64622;46.220;19.878;2023-07-31T12:21:21;100178.09;;;31.07;28.12
75942;BME280;64622;46.220;19.878;2023-07-31T12:23:48;100175.63;;;30.53;30.04
75942;BME280;64622;46.220;19.878;2023-07-31T12:26:16;100158.94;;;30.40;30.65
75942;BME280;64622;46.220;19.878;2023-07-31T12:28:43;100166.06;;;30.17;31.40
75942;BME280;64622;46.220;19.878;2023-07-31T12:31:12;100164.88;;;30.52;30.95
75942;BME280;64622;46.220;19.878;2023-07-31T12:33:40;100158.84;;;30.50;31.05
75942;BME280;64622;46.220;19.878;2023-07-31T12:36:10;100156.44;;;30.67;30.90
75942;BME280;64622;46.220;19.878;2023-07-31T12:38:37;100147.62;;;30.36;31.07
75942;BME280;64622;46.220;19.878;2023-07-31T12:41:04;100140.06;;;30.18;31.62
75942;BME280;64622;46.220;19.878;2023-07-31T12:43:33;100136.94;;;30.30;31.83
75942;BME280;64622;46.220;19.878;2023-07-31T12:46:00;100140.94;;;30.42;31.85
75942;BME280;64622;46.220;19.878;2023-07-31T12:48:26;100146.31;;;30.29;30.58